11°C Temp
4°C Dewpoint
62% Humidity
Temperature
5 KM/H
3 MPH
3 KTS
360°
Due North

Wind Speed
Clear
Conditions
Pressure 1012.92 (hPa) - 29.91 (in)
Visibility 6.2 (mi) - 10.0 (km)

Current Conditions
LIMC
Location Malpensa 50(km)
Metar :LIMC 282050Z 36003KT CAVOK 11/04 Q1013 NOSIG
Sat 28th March 21:50 pm

Airport
  Metar Aviation API Data Provided by https://www.checkwx.com/ PHP scripts by weather34.com ©2020